sensor_id;sensor_type;location;lat;lon;timestamp;pressure;altitude;pressure_sealevel;temperature;humidity
7614;BME280;3848;42.016;23.098;2023-05-19T00:00:54;97258.28;;;13.61;100.00
7614;BME280;3848;42.016;23.098;2023-05-19T00:03:21;97254.06;;;13.58;100.00
7614;BME280;3848;42.016;23.098;2023-05-19T00:05:50;97254.06;;;13.58;100.00
7614;BME280;3848;42.016;23.098;2023-05-19T00:08:18;97252.38;;;13.57;100.00
7614;BME280;3848;42.016;23.098;2023-05-19T00:10:46;97252.44;;;13.54;100.00
7614;BME280;3848;42.016;23.098;2023-05-19T00:13:13;97256.66;;;13.57;100.00
7614;BME280;3848;42.016;23.098;2023-05-19T00:15:42;97254.13;;;13.55;100.00
7614;BME280;3848;42.016;23.098;2023-05-19T00:18:09;97250.78;;;13.50;100.00
7614;BME280;3848;42.016;23.098;2023-05-19T00:20:38;97243.16;;;13.49;100.00
7614;BME280;3848;42.016;23.098;2023-05-19T00:23:05;97250.78;;;13.50;100.00
7614;BME280;3848;42.016;23.098;2023-05-19T00:25:31;97251.63;;;13.51;100.00
7614;BME280;3848;42.016;23.098;2023-05-19T00:27:58;97251.78;;;13.43;100.00
7614;BME280;3848;42.016;23.098;2023-05-19T00:30:26;97259.47;;;13.41;100.00
7614;BME280;3848;42.016;23.098;2023-05-19T00:32:54;97261.16;;;13.42;100.00
7614;BME280;3848;42.016;23.098;2023-05-19T00:35:22;97259.50;;;13.40;100.00
7614;BME280;3848;42.016;23.098;2023-05-19T00:37:49;97261.19;;;13.41;100.00
7614;BME280;3848;42.016;23.098;2023-05-19T00:40:16;97256.97;;;13.38;100.00
7614;BME280;3848;42.016;23.098;2023-05-19T00:42:43;97260.41;;;13.37;100.00
7614;BME280;3848;42.016;23.098;2023-05-19T00:45:09;97197.13;;;13.04;100.00
7614;BME280;3848;42.016;23.098;2023-05-19T00:47:38;97248.44;;;13.39;100.00
7614;BME280;3848;42.016;23.098;2023-05-19T00:50:06;97251.03;;;13.38;100.00
7614;BME280;3848;42.016;23.098;2023-05-19T00:52:33;97252.69;;;13.40;100.00
7614;BME280;3848;42.016;23.098;2023-05-19T00:55:00;97239.91;;;13.40;100.00
7614;BME280;3848;42.016;23.098;2023-05-19T00:57:27;97239.91;;;13.40;100.00
7614;BME280;3848;42.016;23.098;2023-05-19T00:59:54;97246.66;;;13.45;100.00
7614;BME280;3848;42.016;23.098;2023-05-19T01:02:21;97246.59;;;13.48;100.00
7614;BME280;3848;42.016;23.098;2023-05-19T01:04:49;97244.81;;;13.51;100.00
7614;BME280;3848;42.016;23.098;2023-05-19T01:07:19;97234.66;;;13.48;100.00
7614;BME280;3848;42.016;23.098;2023-05-19T01:09:46;97246.72;;;13.41;100.00
7614;BME280;3848;42.016;23.098;2023-05-19T01:12:13;97239.06;;;13.41;100.00
7614;BME280;3848;42.016;23.098;2023-05-19T01:14:40;97240.81;;;13.38;100.00
7614;BME280;3848;42.016;23.098;2023-05-19T01:17:12;97197.84;;;13.12;100.00
7614;BME280;3848;42.016;23.098;2023-05-19T01:19:56;97229.00;;;13.31;100.00
7614;BME280;3848;42.016;23.098;2023-05-19T01:26:11;97223.19;;;13.24;100.00
7614;BME280;3848;42.016;23.098;2023-05-19T01:29:15;97228.22;;;13.27;100.00
7614;BME280;3848;42.016;23.098;2023-05-19T01:31:47;97225.69;;;13.27;100.00
7614;BME280;3848;42.016;23.098;2023-05-19T01:34:15;97225.69;;;13.27;100.00
7614;BME280;3848;42.016;23.098;2023-05-19T01:36:43;97220.75;;;13.18;100.00
7614;BME280;3848;42.016;23.098;2023-05-19T01:39:14;97230.84;;;13.24;100.00
7614;BME280;3848;42.016;23.098;2023-05-19T01:41:42;97226.59;;;13.23;100.00
7614;BME280;3848;42.016;23.098;2023-05-19T01:44:11;97233.47;;;13.20;100.00
7614;BME280;3848;42.016;23.098;2023-05-19T01:46:38;97219.00;;;13.20;100.00
7614;BME280;3848;42.016;23.098;2023-05-19T01:49:06;97208.00;;;13.15;100.00
7614;BME280;3848;42.016;23.098;2023-05-19T01:51:33;97169.19;;;12.98;100.00
7614;BME280;3848;42.016;23.098;2023-05-19T01:54:01;97214.72;;;13.22;100.00
7614;BME280;3848;42.016;23.098;2023-05-19T01:56:39;97210.56;;;13.15;100.00
7614;BME280;3848;42.016;23.098;2023-05-19T01:59:23;97208.16;;;13.06;100.00
7614;BME280;3848;42.016;23.098;2023-05-19T02:01:52;97213.97;;;13.14;100.00
7614;BME280;3848;42.016;23.098;2023-05-19T02:04:29;97211.47;;;13.09;100.00
7614;BME280;3848;42.016;23.098;2023-05-19T02:07:09;97219.97;;;13.10;100.00
7614;BME280;3848;42.016;23.098;2023-05-19T02:09:45;97219.34;;;12.97;100.00
7614;BME280;3848;42.016;23.098;2023-05-19T02:12:19;97213.47;;;12.94;100.00
7614;BME280;3848;42.016;23.098;2023-05-19T02:14:53;97219.31;;;12.99;100.00
7614;BME280;3848;42.016;23.098;2023-05-19T02:17:24;97225.28;;;12.99;100.00
7614;BME280;3848;42.016;23.098;2023-05-19T02:19:55;97218.50;;;12.97;100.00
7614;BME280;3848;42.016;23.098;2023-05-19T02:22:22;97226.22;;;12.94;100.00
7614;BME280;3848;42.016;23.098;2023-05-19T02:24:49;97224.50;;;12.94;100.00
7614;BME280;3848;42.016;23.098;2023-05-19T02:27:16;97227.94;;;12.90;100.00
7614;BME280;3848;42.016;23.098;2023-05-19T02:29:43;97223.69;;;12.91;100.00
7614;BME280;3848;42.016;23.098;2023-05-19T02:32:10;97233.88;;;12.91;100.00
7614;BME280;3848;42.016;23.098;2023-05-19T02:34:37;97236.47;;;12.89;100.00
7614;BME280;3848;42.016;23.098;2023-05-19T02:37:05;97246.69;;;12.88;100.00
7614;BME280;3848;42.016;23.098;2023-05-19T02:39:32;97234.06;;;12.80;100.00
7614;BME280;3848;42.016;23.098;2023-05-19T02:42:00;97241.75;;;12.78;100.00
7614;BME280;3848;42.016;23.098;2023-05-19T02:44:27;97238.34;;;12.78;100.00
7614;BME280;3848;42.016;23.098;2023-05-19T02:46:53;97234.97;;;12.77;100.00
7614;BME280;3848;42.016;23.098;2023-05-19T02:49:20;97237.56;;;12.74;100.00
7614;BME280;3848;42.016;23.098;2023-05-19T02:51:47;97241.03;;;12.70;100.00
7614;BME280;3848;42.016;23.098;2023-05-19T02:54:15;97233.44;;;12.66;100.00
7614;BME280;3848;42.016;23.098;2023-05-19T02:56:42;97247.94;;;12.62;100.00
7614;BME280;3848;42.016;23.098;2023-05-19T02:59:08;97240.41;;;12.55;100.00
7614;BME280;3848;42.016;23.098;2023-05-19T03:01:35;97225.19;;;12.47;100.00
7614;BME280;3848;42.016;23.098;2023-05-19T03:04:02;97240.41;;;12.55;100.00
7614;BME280;3848;42.016;23.098;2023-05-19T03:06:29;97231.22;;;12.41;100.00
7614;BME280;3848;42.016;23.098;2023-05-19T03:08:57;97241.44;;;12.40;100.00
7614;BME280;3848;42.016;23.098;2023-05-19T03:11:25;97259.28;;;12.40;100.00
7614;BME280;3848;42.016;23.098;2023-05-19T03:13:52;97254.22;;;12.38;100.00
7614;BME280;3848;42.016;23.098;2023-05-19T03:16:18;97257.56;;;12.40;100.00
7614;BME280;3848;42.016;23.098;2023-05-19T03:18:46;97244.09;;;12.32;100.00
7614;BME280;3848;42.016;23.098;2023-05-19T03:21:13;97259.41;;;12.32;100.00
7614;BME280;3848;42.016;23.098;2023-05-19T03:23:39;97244.19;;;12.25;100.00
7614;BME280;3848;42.016;23.098;2023-05-19T03:26:06;97247.72;;;12.16;100.00
7614;BME280;3848;42.016;23.098;2023-05-19T03:28:34;97244.31;;;12.15;100.00
7614;BME280;3848;42.016;23.098;2023-05-19T03:31:01;97264.59;;;12.21;100.00
7614;BME280;3848;42.016;23.098;2023-05-19T03:33:28;97255.31;;;12.17;100.00
7614;BME280;3848;42.016;23.098;2023-05-19T03:35:55;97260.53;;;12.08;100.00
7614;BME280;3848;42.016;23.098;2023-05-19T03:38:22;97256.31;;;12.06;100.00
7614;BME280;3848;42.016;23.098;2023-05-19T03:40:49;97263.94;;;12.06;100.00
7614;BME280;3848;42.016;23.098;2023-05-19T03:43:15;97267.38;;;12.03;100.00
7614;BME280;3848;42.016;23.098;2023-05-19T03:45:43;97266.56;;;12.00;100.00
7614;BME280;3848;42.016;23.098;2023-05-19T03:48:10;97268.25;;;12.02;100.00
7614;BME280;3848;42.016;23.098;2023-05-19T03:50:40;97258.13;;;11.98;100.00
7614;BME280;3848;42.016;23.098;2023-05-19T03:53:06;97269.09;;;12.01;100.00
7614;BME280;3848;42.016;23.098;2023-05-19T03:55:33;97268.25;;;12.01;100.00
7614;BME280;3848;42.016;23.098;2023-05-19T03:58:01;97265.78;;;11.96;100.00
7614;BME280;3848;42.016;23.098;2023-05-19T04:00:28;97265.00;;;11.89;100.00
7614;BME280;3848;42.016;23.098;2023-05-19T04:02:56;97276.00;;;11.93;100.00
7614;BME280;3848;42.016;23.098;2023-05-19T04:05:24;97270.88;;;11.95;100.00
7614;BME280;3848;42.016;23.098;2023-05-19T04:07:51;97272.59;;;11.93;100.00
7614;BME280;3848;42.016;23.098;2023-05-19T04:10:18;97269.19;;;11.94;100.00
7614;BME280;3848;42.016;23.098;2023-05-19T04:12:45;97257.44;;;11.82;100.00
7614;BME280;3848;42.016;23.098;2023-05-19T04:15:12;97263.28;;;11.92;100.00
7614;BME280;3848;42.016;23.098;2023-05-19T04:17:39;97275.97;;;11.96;100.00
7614;BME280;3848;42.016;23.098;2023-05-19T04:20:08;97276.75;;;12.00;100.00
7614;BME280;3848;42.016;23.098;2023-05-19T04:22:35;97278.38;;;12.05;100.00
7614;BME280;3848;42.016;23.098;2023-05-19T04:25:02;97276.66;;;12.07;100.00
7614;BME280;3848;42.016;23.098;2023-05-19T04:27:29;97275.84;;;12.05;100.00
7614;BME280;3848;42.016;23.098;2023-05-19T04:29:56;97269.91;;;12.05;100.00
7614;BME280;3848;42.016;23.098;2023-05-19T04:32:23;97265.78;;;11.96;100.00
7614;BME280;3848;42.016;23.098;2023-05-19T04:34:50;97276.78;;;11.98;100.00
7614;BME280;3848;42.016;23.098;2023-05-19T04:37:18;97272.47;;;12.03;100.00
7614;BME280;3848;42.016;23.098;2023-05-19T04:39:45;97270.72;;;12.10;100.00
7614;BME280;3848;42.016;23.098;2023-05-19T04:42:12;97260.56;;;12.05;100.00
7614;BME280;3848;42.016;23.098;2023-05-19T04:44:43;97280.00;;;12.14;100.00
7614;BME280;3848;42.016;23.098;2023-05-19T04:47:10;97245.38;;;11.98;100.00
7614;BME280;3848;42.016;23.098;2023-05-19T04:49:39;97290.88;;;12.27;100.00
7614;BME280;3848;42.016;23.098;2023-05-19T04:52:07;97282.31;;;12.32;100.00
7614;BME280;3848;42.016;23.098;2023-05-19T04:54:37;97273.78;;;12.35;100.00
7614;BME280;3848;42.016;23.098;2023-05-19T04:57:04;97258.59;;;12.29;100.00
7614;BME280;3848;42.016;23.098;2023-05-19T04:59:31;97292.25;;;12.52;100.00
7614;BME280;3848;42.016;23.098;2023-05-19T05:01:58;97286.16;;;12.62;100.00
7614;BME280;3848;42.016;23.098;2023-05-19T05:04:25;97278.53;;;12.62;100.00
7614;BME280;3848;42.016;23.098;2023-05-19T05:06:52;97291.13;;;12.73;100.00
7614;BME280;3848;42.016;23.098;2023-05-19T05:09:19;97277.59;;;12.66;100.00
7614;BME280;3848;42.016;23.098;2023-05-19T05:11:48;97288.50;;;12.77;100.00
7614;BME280;3848;42.016;23.098;2023-05-19T05:14:16;97291.13;;;12.73;100.00
7614;BME280;3848;42.016;23.098;2023-05-19T05:16:43;97291.88;;;12.79;100.00
7614;BME280;3848;42.016;23.098;2023-05-19T05:19:11;97295.19;;;12.85;100.00
7614;BME280;3848;42.016;23.098;2023-05-19T05:21:38;97279.84;;;12.88;100.00
7614;BME280;3848;42.016;23.098;2023-05-19T05:24:07;97287.28;;;13.03;100.00
7614;BME280;3848;42.016;23.098;2023-05-19T05:26:34;97294.84;;;13.09;100.00
7614;BME280;3848;42.016;23.098;2023-05-19T05:29:02;97291.31;;;13.19;100.00
7614;BME280;3848;42.016;23.098;2023-05-19T05:31:29;97270.81;;;13.24;100.00
7614;BME280;3848;42.016;23.098;2023-05-19T05:33:57;97278.19;;;13.42;100.00
7614;BME280;3848;42.016;23.098;2023-05-19T05:36:24;97286.47;;;13.53;100.00
7614;BME280;3848;42.016;23.098;2023-05-19T05:38:50;97286.38;;;13.61;100.00
7614;BME280;3848;42.016;23.098;2023-05-19T05:41:17;97287.94;;;13.68;100.00
7614;BME280;3848;42.016;23.098;2023-05-19T05:43:44;97288.59;;;13.79;100.00
7614;BME280;3848;42.016;23.098;2023-05-19T05:46:12;97286.72;;;13.87;100.00
7614;BME280;3848;42.016;23.098;2023-05-19T05:48:39;97289.13;;;13.96;100.00
7614;BME280;3848;42.016;23.098;2023-05-19T05:51:08;97273.09;;;13.88;100.00
7614;BME280;3848;42.016;23.098;2023-05-19T05:53:39;97300.69;;;14.14;100.00
7614;BME280;3848;42.016;23.098;2023-05-19T05:56:09;97302.91;;;14.31;100.00
7614;BME280;3848;42.016;23.098;2023-05-19T05:58:35;97305.16;;;14.48;100.00
7614;BME280;3848;42.016;23.098;2023-05-19T06:01:05;97304.06;;;14.59;100.00
7614;BME280;3848;42.016;23.098;2023-05-19T06:03:37;97309.09;;;14.64;100.00
7614;BME280;3848;42.016;23.098;2023-05-19T06:06:04;97308.84;;;14.75;100.00
7614;BME280;3848;42.016;23.098;2023-05-19T06:08:31;97305.28;;;14.82;100.00
7614;BME280;3848;42.016;23.098;2023-05-19T06:10:58;97317.00;;;14.92;100.00
7614;BME280;3848;42.016;23.098;2023-05-19T06:13:24;97315.19;;;14.95;100.00
7614;BME280;3848;42.016;23.098;2023-05-19T06:15:51;97312.53;;;15.02;100.00
7614;BME280;3848;42.016;23.098;2023-05-19T06:18:18;97312.56;;;15.00;100.00
7614;BME280;3848;42.016;23.098;2023-05-19T06:20:46;97315.06;;;15.03;100.00
7614;BME280;3848;42.016;23.098;2023-05-19T06:23:13;97308.91;;;15.10;100.00
7614;BME280;3848;42.016;23.098;2023-05-19T06:25:39;97318.19;;;15.14;100.00
7614;BME280;3848;42.016;23.098;2023-05-19T06:28:06;97307.81;;;15.20;100.00
7614;BME280;3848;42.016;23.098;2023-05-19T06:30:33;97307.47;;;15.34;100.00
7614;BME280;3848;42.016;23.098;2023-05-19T06:33:01;97306.44;;;15.43;100.00
7614;BME280;3848;42.016;23.098;2023-05-19T06:35:28;97303.72;;;15.49;100.00
7614;BME280;3848;42.016;23.098;2023-05-19T06:37:57;97310.84;;;15.72;100.00
7614;BME280;3848;42.016;23.098;2023-05-19T06:40:23;97303.03;;;15.76;100.00
7614;BME280;3848;42.016;23.098;2023-05-19T06:42:50;97309.41;;;15.94;100.00
7614;BME280;3848;42.016;23.098;2023-05-19T06:45:17;97306.50;;;16.08;100.00
7614;BME280;3848;42.016;23.098;2023-05-19T06:47:46;97308.59;;;16.23;100.00
7614;BME280;3848;42.016;23.098;2023-05-19T06:50:13;97305.81;;;16.32;100.00
7614;BME280;3848;42.016;23.098;2023-05-19T06:52:40;97310.63;;;16.43;100.00
7614;BME280;3848;42.016;23.098;2023-05-19T06:55:08;97311.06;;;16.57;100.00
7614;BME280;3848;42.016;23.098;2023-05-19T06:57:35;97317.69;;;16.66;100.00
7614;BME280;3848;42.016;23.098;2023-05-19T07:00:02;97299.47;;;16.75;100.00
7614;BME280;3848;42.016;23.098;2023-05-19T07:02:30;97300.91;;;16.84;100.00
7614;BME280;3848;42.016;23.098;2023-05-19T07:04:57;97299.69;;;16.95;100.00
7614;BME280;3848;42.016;23.098;2023-05-19T07:07:23;97301.84;;;17.09;100.00
7614;BME280;3848;42.016;23.098;2023-05-19T07:09:51;97295.56;;;17.18;100.00
7614;BME280;3848;42.016;23.098;2023-05-19T07:12:20;97297.03;;;17.25;100.00
7614;BME280;3848;42.016;23.098;2023-05-19T07:14:49;97302.06;;;17.29;100.00
7614;BME280;3848;42.016;23.098;2023-05-19T07:17:16;97299.28;;;17.35;100.00
7614;BME280;3848;42.016;23.098;2023-05-19T07:19:43;97278.78;;;17.34;100.00
7614;BME280;3848;42.016;23.098;2023-05-19T07:22:10;97288.81;;;17.42;100.00
7614;BME280;3848;42.016;23.098;2023-05-19T07:24:37;97296.16;;;17.52;100.00
7614;BME280;3848;42.016;23.098;2023-05-19T07:27:04;97278.25;;;17.51;100.00
7614;BME280;3848;42.016;23.098;2023-05-19T07:29:32;97282.75;;;17.71;100.00
7614;BME280;3848;42.016;23.098;2023-05-19T07:31:59;97275.31;;;17.86;100.00
7614;BME280;3848;42.016;23.098;2023-05-19T07:34:26;97294.41;;;18.04;100.00
7614;BME280;3848;42.016;23.098;2023-05-19T07:36:52;97289.03;;;18.12;100.00
7614;BME280;3848;42.016;23.098;2023-05-19T07:39:19;97294.72;;;18.20;100.00
7614;BME280;3848;42.016;23.098;2023-05-19T07:41:46;97286.78;;;18.26;100.00
7614;BME280;3848;42.016;23.098;2023-05-19T07:44:17;97290.41;;;18.44;100.00
7614;BME280;3848;42.016;23.098;2023-05-19T07:46:45;97291.78;;;18.52;100.00
7614;BME280;3848;42.016;23.098;2023-05-19T07:49:11;97282.88;;;18.63;100.00
7614;BME280;3848;42.016;23.098;2023-05-19T07:51:39;97281.03;;;18.66;100.00
7614;BME280;3848;42.016;23.098;2023-05-19T07:54:07;97275.53;;;18.75;100.00
7614;BME280;3848;42.016;23.098;2023-05-19T07:56:33;97282.91;;;18.84;100.00
7614;BME280;3848;42.016;23.098;2023-05-19T07:59:00;97276.44;;;18.74;100.00
7614;BME280;3848;42.016;23.098;2023-05-19T08:01:28;97270.28;;;18.78;100.00
7614;BME280;3848;42.016;23.098;2023-05-19T08:03:56;97273.38;;;18.86;100.00
7614;BME280;3848;42.016;23.098;2023-05-19T08:06:23;97277.69;;;19.08;100.00
7614;BME280;3848;42.016;23.098;2023-05-19T08:08:50;97264.56;;;19.14;100.00
7614;BME280;3848;42.016;23.098;2023-05-19T08:11:18;97271.03;;;19.24;100.00
7614;BME280;3848;42.016;23.098;2023-05-19T08:13:45;97277.31;;;19.39;100.00
7614;BME280;3848;42.016;23.098;2023-05-19T08:16:13;97272.28;;;19.58;100.00
7614;BME280;3848;42.016;23.098;2023-05-19T08:18:40;97282.97;;;19.69;100.00
7614;BME280;3848;42.016;23.098;2023-05-19T08:21:08;97273.28;;;19.74;100.00
7614;BME280;3848;42.016;23.098;2023-05-19T08:23:35;97250.13;;;19.72;100.00
7614;BME280;3848;42.016;23.098;2023-05-19T08:26:03;97264.13;;;19.87;100.00
7614;BME280;3848;42.016;23.098;2023-05-19T08:28:30;97264.81;;;19.91;100.00
7614;BME280;3848;42.016;23.098;2023-05-19T08:30:56;97266.19;;;19.99;100.00
7614;BME280;3848;42.016;23.098;2023-05-19T08:33:23;97273.03;;;20.00;100.00
7614;BME280;3848;42.016;23.098;2023-05-19T08:35:50;97260.91;;;20.02;100.00
7614;BME280;3848;42.016;23.098;2023-05-19T08:38:18;97267.31;;;20.13;100.00
7614;BME280;3848;42.016;23.098;2023-05-19T08:40:46;97262.00;;;20.16;100.00
7614;BME280;3848;42.016;23.098;2023-05-19T08:43:13;97262.38;;;20.27;100.00
7614;BME280;3848;42.016;23.098;2023-05-19T08:45:42;97264.69;;;20.33;100.00
7614;BME280;3848;42.016;23.098;2023-05-19T08:48:09;97271.00;;;20.46;100.00
7614;BME280;3848;42.016;23.098;2023-05-19T08:50:39;97255.75;;;20.40;100.00
7614;BME280;3848;42.016;23.098;2023-05-19T08:53:12;97257.06;;;20.50;100.00
7614;BME280;3848;42.016;23.098;2023-05-19T08:55:43;97262.16;;;20.52;100.00
7614;BME280;3848;42.016;23.098;2023-05-19T08:58:13;97263.06;;;20.51;100.00
7614;BME280;3848;42.016;23.098;2023-05-19T09:00:41;97254.53;;;20.49;100.00
7614;BME280;3848;42.016;23.098;2023-05-19T09:03:08;97252.59;;;20.54;100.00
7614;BME280;3848;42.016;23.098;2023-05-19T09:05:37;97254.25;;;20.55;100.00
7614;BME280;3848;42.016;23.098;2023-05-19T09:08:04;97255.44;;;20.85;100.00
7614;BME280;3848;42.016;23.098;2023-05-19T09:10:31;97248.56;;;21.20;100.00
7614;BME280;3848;42.016;23.098;2023-05-19T09:12:59;97241.91;;;21.51;100.00
7614;BME280;3848;42.016;23.098;2023-05-19T09:15:26;97246.00;;;21.72;100.00
7614;BME280;3848;42.016;23.098;2023-05-19T09:18:05;97239.41;;;21.67;100.00
7614;BME280;3848;42.016;23.098;2023-05-19T09:20:36;97238.16;;;21.74;100.00
7614;BME280;3848;42.016;23.098;2023-05-19T09:23:06;97238.31;;;22.04;92.44
7614;BME280;3848;42.016;23.098;2023-05-19T09:25:33;97237.91;;;22.13;84.24
7614;BME280;3848;42.016;23.098;2023-05-19T09:28:02;97235.38;;;22.27;79.20
7614;BME280;3848;42.016;23.098;2023-05-19T09:30:29;97210.44;;;22.42;80.94
7614;BME280;3848;42.016;23.098;2023-05-19T09:32:56;97226.66;;;22.61;77.08
7614;BME280;3848;42.016;23.098;2023-05-19T09:35:23;97230.00;;;22.63;82.39
7614;BME280;3848;42.016;23.098;2023-05-19T09:37:50;97229.41;;;22.42;85.49
7614;BME280;3848;42.016;23.098;2023-05-19T09:40:16;97227.22;;;22.66;88.30
7614;BME280;3848;42.016;23.098;2023-05-19T09:42:43;97222.94;;;23.13;92.01
7614;BME280;3848;42.016;23.098;2023-05-19T09:45:11;97208.22;;;23.43;77.79
7614;BME280;3848;42.016;23.098;2023-05-19T09:47:39;97212.25;;;23.63;74.98
7614;BME280;3848;42.016;23.098;2023-05-19T09:50:09;97211.59;;;23.73;78.12
7614;BME280;3848;42.016;23.098;2023-05-19T09:52:36;97211.09;;;23.97;72.04
7614;BME280;3848;42.016;23.098;2023-05-19T09:55:04;97216.00;;;24.16;66.44
7614;BME280;3848;42.016;23.098;2023-05-19T09:57:35;97210.34;;;24.38;68.06
7614;BME280;3848;42.016;23.098;2023-05-19T10:00:16;97206.66;;;24.54;61.87
7614;BME280;3848;42.016;23.098;2023-05-19T10:02:45;97216.00;;;24.98;60.72
7614;BME280;3848;42.016;23.098;2023-05-19T10:05:13;97210.09;;;25.36;68.98
7614;BME280;3848;42.016;23.098;2023-05-19T10:07:42;97206.56;;;25.24;53.56
7614;BME280;3848;42.016;23.098;2023-05-19T10:10:11;97213.56;;;25.09;55.19
7614;BME280;3848;42.016;23.098;2023-05-19T10:12:38;97202.25;;;24.83;50.67
7614;BME280;3848;42.016;23.098;2023-05-19T10:15:08;97201.75;;;24.64;51.04
7614;BME280;3848;42.016;23.098;2023-05-19T10:17:38;97193.81;;;24.80;52.14
7614;BME280;3848;42.016;23.098;2023-05-19T10:20:10;97193.44;;;25.26;51.71
7614;BME280;3848;42.016;23.098;2023-05-19T10:22:38;97195.91;;;25.14;51.74
7614;BME280;3848;42.016;23.098;2023-05-19T10:25:07;97191.53;;;25.02;53.90
7614;BME280;3848;42.016;23.098;2023-05-19T10:27:36;97187.13;;;24.76;56.09
7614;BME280;3848;42.016;23.098;2023-05-19T10:30:08;97190.00;;;24.71;56.17
7614;BME280;3848;42.016;23.098;2023-05-19T10:32:38;97172.63;;;24.59;57.15
7614;BME280;3848;42.016;23.098;2023-05-19T10:35:30;97184.19;;;24.68;61.80
7614;BME280;3848;42.016;23.098;2023-05-19T10:38:06;97193.56;;;24.56;59.48
7614;BME280;3848;42.016;23.098;2023-05-19T10:40:39;97189.38;;;24.41;59.23
7614;BME280;3848;42.016;23.098;2023-05-19T10:43:21;97197.53;;;24.35;57.61
7614;BME280;3848;42.016;23.098;2023-05-19T10:45:51;97165.63;;;24.04;57.99
7614;BME280;3848;42.016;23.098;2023-05-19T10:48:20;97191.78;;;24.01;56.59
7614;BME280;3848;42.016;23.098;2023-05-19T10:50:48;97193.84;;;23.96;62.23
7614;BME280;3848;42.016;23.098;2023-05-19T10:53:18;97205.88;;;23.83;65.02
7614;BME280;3848;42.016;23.098;2023-05-19T10:55:50;97198.81;;;23.70;65.40
7614;BME280;3848;42.016;23.098;2023-05-19T10:58:48;97177.44;;;23.51;63.95
7614;BME280;3848;42.016;23.098;2023-05-19T11:01:16;97180.97;;;23.50;66.17
7614;BME280;3848;42.016;23.098;2023-05-19T11:03:46;97184.69;;;23.46;70.83
7614;BME280;3848;42.016;23.098;2023-05-19T11:06:23;97156.78;;;23.35;71.64
7614;BME280;3848;42.016;23.098;2023-05-19T11:08:55;97175.47;;;23.56;66.59
7614;BME280;3848;42.016;23.098;2023-05-19T11:11:22;97166.66;;;23.59;61.24
7614;BME280;3848;42.016;23.098;2023-05-19T11:13:51;97156.28;;;23.73;67.44
7614;BME280;3848;42.016;23.098;2023-05-19T11:16:26;97154.31;;;23.91;57.56
7614;BME280;3848;42.016;23.098;2023-05-19T11:18:55;97173.88;;;24.11;59.04
7614;BME280;3848;42.016;23.098;2023-05-19T11:21:22;97183.03;;;24.45;56.39
7614;BME280;3848;42.016;23.098;2023-05-19T11:23:50;97182.13;;;24.73;52.13
7614;BME280;3848;42.016;23.098;2023-05-19T11:26:38;97177.78;;;25.13;52.73
7614;BME280;3848;42.016;23.098;2023-05-19T11:29:05;97179.75;;;25.74;53.07
7614;BME280;3848;42.016;23.098;2023-05-19T11:31:33;97164.06;;;26.25;54.09
7614;BME280;3848;42.016;23.098;2023-05-19T11:34:02;97162.19;;;26.88;53.83
7614;BME280;3848;42.016;23.098;2023-05-19T11:36:32;97155.47;;;27.43;50.85
7614;BME280;3848;42.016;23.098;2023-05-19T11:39:00;97150.22;;;27.89;51.54
7614;BME280;3848;42.016;23.098;2023-05-19T11:41:27;97144.00;;;28.23;47.75
7614;BME280;3848;42.016;23.098;2023-05-19T11:43:55;97147.69;;;28.21;46.40
7614;BME280;3848;42.016;23.098;2023-05-19T11:46:22;97137.22;;;28.43;48.74
7614;BME280;3848;42.016;23.098;2023-05-19T11:48:49;97126.00;;;28.64;45.83
7614;BME280;3848;42.016;23.098;2023-05-19T11:51:20;97136.38;;;28.54;43.70
7614;BME280;3848;42.016;23.098;2023-05-19T11:53:48;97136.91;;;28.26;47.07
7614;BME280;3848;42.016;23.098;2023-05-19T11:56:15;97134.75;;;28.08;52.95
7614;BME280;3848;42.016;23.098;2023-05-19T11:58:42;97133.69;;;27.66;46.72
7614;BME280;3848;42.016;23.098;2023-05-19T12:01:08;97128.16;;;27.13;46.29
7614;BME280;3848;42.016;23.098;2023-05-19T12:03:35;97127.06;;;26.57;47.19
7614;BME280;3848;42.016;23.098;2023-05-19T12:06:03;97123.75;;;26.18;48.03
7614;BME280;3848;42.016;23.098;2023-05-19T12:08:32;97123.81;;;25.80;49.54
7614;BME280;3848;42.016;23.098;2023-05-19T12:11:00;97087.50;;;25.28;50.85
7614;BME280;3848;42.016;23.098;2023-05-19T12:13:27;97122.34;;;25.38;50.47
7614;BME280;3848;42.016;23.098;2023-05-19T12:15:58;97115.19;;;25.29;51.96
7614;BME280;3848;42.016;23.098;2023-05-19T12:18:28;97118.31;;;25.21;53.00
7614;BME280;3848;42.016;23.098;2023-05-19T12:20:57;97108.50;;;25.12;51.65
7614;BME280;3848;42.016;23.098;2023-05-19T12:23:24;97108.50;;;25.12;55.52
7614;BME280;3848;42.016;23.098;2023-05-19T12:25:56;97102.50;;;25.24;57.53
7614;BME280;3848;42.016;23.098;2023-05-19T12:28:24;97115.09;;;25.30;55.61
7614;BME280;3848;42.016;23.098;2023-05-19T12:30:51;97111.03;;;25.26;56.68
7614;BME280;3848;42.016;23.098;2023-05-19T12:33:19;97111.53;;;25.31;54.15
7614;BME280;3848;42.016;23.098;2023-05-19T12:35:48;97118.19;;;25.35;54.08
7614;BME280;3848;42.016;23.098;2023-05-19T12:38:16;97100.91;;;25.34;56.76
7614;BME280;3848;42.016;23.098;2023-05-19T12:40:44;97109.56;;;25.47;53.02
7614;BME280;3848;42.016;23.098;2023-05-19T12:43:19;97111.56;;;25.69;50.47
7614;BME280;3848;42.016;23.098;2023-05-19T12:45:47;97117.50;;;25.71;50.20
7614;BME280;3848;42.016;23.098;2023-05-19T12:48:14;97115.19;;;25.67;52.94
7614;BME280;3848;42.016;23.098;2023-05-19T12:50:42;97117.47;;;25.59;52.23
7614;BME280;3848;42.016;23.098;2023-05-19T12:53:10;97119.75;;;25.50;49.93
7614;BME280;3848;42.016;23.098;2023-05-19T12:55:38;97111.22;;;25.48;56.25
7614;BME280;3848;42.016;23.098;2023-05-19T12:58:07;97111.00;;;25.39;53.55
7614;BME280;3848;42.016;23.098;2023-05-19T13:00:41;97120.91;;;25.34;51.89
7614;BME280;3848;42.016;23.098;2023-05-19T13:03:14;97108.72;;;25.34;56.90
7614;BME280;3848;42.016;23.098;2023-05-19T13:05:46;97108.94;;;25.31;50.73
7614;BME280;3848;42.016;23.098;2023-05-19T13:08:14;97101.66;;;25.36;57.17
7614;BME280;3848;42.016;23.098;2023-05-19T13:10:45;97105.31;;;25.46;52.43
7614;BME280;3848;42.016;23.098;2023-05-19T13:13:15;97098.84;;;25.65;48.80